createdAt,value
2022-11-12T00:00:53.568Z,5.03
2022-11-12T00:03:21.127Z,6.30
2022-11-12T00:05:49.602Z,3.42
2022-11-12T00:08:16.579Z,4.90
2022-11-12T00:10:44.086Z,3.78
2022-11-12T00:13:10.809Z,3.40
2022-11-12T00:15:37.465Z,4.55
2022-11-12T00:18:04.135Z,4.63
2022-11-12T00:20:30.881Z,5.00
2022-11-12T00:22:57.422Z,8.05
2022-11-12T00:25:24.117Z,8.98
2022-11-12T00:27:50.641Z,4.20
2022-11-12T00:30:18.531Z,4.80
2022-11-12T00:32:45.087Z,5.95
2022-11-12T00:35:14.033Z,4.50
2022-11-12T00:37:41.118Z,3.88
2022-11-12T00:40:08.832Z,3.17
2022-11-12T00:42:35.684Z,4.63
2022-11-12T00:45:02.442Z,3.55
2022-11-12T00:47:29.117Z,4.47
2022-11-12T00:49:55.686Z,5.00
2022-11-12T00:52:22.341Z,4.60
2022-11-12T00:54:48.898Z,5.13
2022-11-12T00:57:15.429Z,5.07
2022-11-12T00:59:42.007Z,4.68
2022-11-12T01:02:08.636Z,3.88
2022-11-12T01:04:35.171Z,3.70
2022-11-12T01:07:01.969Z,3.85
2022-11-12T01:09:28.579Z,4.15
2022-11-12T01:11:55.336Z,3.75
2022-11-12T01:14:21.910Z,5.63
2022-11-12T01:16:48.535Z,4.25
2022-11-12T01:19:15.441Z,4.50
2022-11-12T01:21:43.517Z,4.22
2022-11-12T01:24:11.641Z,4.53
2022-11-12T01:26:39.191Z,3.40
2022-11-12T01:29:05.876Z,6.22
2022-11-12T01:31:36.161Z,4.30
2022-11-12T01:34:06.226Z,3.85
2022-11-12T01:36:42.941Z,5.63
2022-11-12T01:39:10.055Z,3.72
2022-11-12T01:41:39.491Z,3.78
2022-11-12T01:44:24.886Z,4.85
2022-11-12T01:47:02.920Z,3.70
2022-11-12T01:49:53.209Z,4.78
2022-11-12T01:52:25.104Z,7.80
2022-11-12T01:54:53.999Z,6.30
2022-11-12T01:57:34.558Z,3.33
2022-11-12T02:00:07.777Z,4.75
2022-11-12T02:02:36.167Z,3.78
2022-11-12T02:05:07.364Z,9.52
2022-11-12T02:07:36.916Z,4.55
2022-11-12T02:10:05.769Z,4.00
2022-11-12T02:12:51.384Z,4.13
2022-11-12T02:15:17.952Z,3.50
2022-11-12T02:17:44.509Z,3.45
2022-11-12T02:20:14.637Z,5.18
2022-11-12T02:22:41.357Z,5.72
2022-11-12T02:25:12.922Z,4.18
2022-11-12T02:27:39.837Z,4.43
2022-11-12T02:30:07.431Z,7.90
2022-11-12T02:32:33.943Z,6.90
2022-11-12T02:35:00.560Z,5.13
2022-11-12T02:37:27.142Z,4.40
2022-11-12T02:39:53.725Z,4.35
2022-11-12T02:42:20.383Z,4.68
2022-11-12T02:44:46.937Z,3.95
2022-11-12T02:47:13.560Z,5.38
2022-11-12T02:49:40.115Z,3.20
2022-11-12T02:52:06.715Z,3.63
2022-11-12T02:54:33.320Z,4.97
2022-11-12T02:56:59.923Z,6.90
2022-11-12T02:59:26.555Z,7.32
2022-11-12T03:01:53.642Z,6.35
2022-11-12T03:04:20.208Z,6.07
2022-11-12T03:06:46.823Z,4.55
2022-11-12T03:09:13.575Z,5.57
2022-11-12T03:11:40.134Z,8.38
2022-11-12T03:14:06.810Z,4.05
2022-11-12T03:16:33.351Z,3.38
2022-11-12T03:18:59.872Z,7.50
2022-11-12T03:21:27.622Z,4.47
2022-11-12T03:23:54.251Z,3.88
2022-11-12T03:26:20.915Z,3.28
2022-11-12T03:28:47.559Z,5.93
2022-11-12T03:31:14.119Z,4.90
2022-11-12T03:33:40.712Z,3.53
2022-11-12T03:36:08.560Z,4.22
2022-11-12T03:38:35.209Z,3.90
2022-11-12T03:41:01.769Z,5.43
2022-11-12T03:43:28.691Z,5.93
2022-11-12T03:45:55.280Z,4.20
2022-11-12T03:48:21.958Z,4.80
2022-11-12T03:50:48.613Z,5.20
2022-11-12T03:53:15.572Z,6.35
2022-11-12T03:55:42.418Z,7.32
2022-11-12T03:58:09.126Z,3.92
2022-11-12T04:00:35.861Z,6.13
2022-11-12T04:03:02.345Z,5.65
2022-11-12T04:05:47.534Z,3.75
2022-11-12T04:08:38.425Z,4.63
2022-11-12T04:11:13.021Z,5.78
2022-11-12T04:13:47.618Z,3.58
2022-11-12T04:16:38.707Z,3.80
2022-11-12T04:19:25.318Z,3.78
2022-11-12T04:21:56.064Z,4.25
2022-11-12T04:24:45.118Z,4.22
2022-11-12T04:27:23.770Z,5.45
2022-11-12T04:30:10.242Z,5.03
2022-11-12T04:32:39.273Z,5.00
2022-11-12T04:35:08.072Z,5.18
2022-11-12T04:37:45.317Z,5.15
2022-11-12T04:40:36.857Z,4.40
2022-11-12T04:43:25.270Z,4.45
2022-11-12T04:45:53.792Z,4.25
2022-11-12T04:48:21.465Z,6.13
2022-11-12T04:50:52.862Z,4.35
2022-11-12T04:53:19.861Z,4.65
2022-11-12T04:55:50.922Z,3.90
2022-11-12T04:58:17.647Z,6.10
2022-11-12T05:00:44.227Z,5.45
2022-11-12T05:03:11.268Z,3.70
2022-11-12T05:05:37.969Z,4.25
2022-11-12T05:08:04.531Z,4.15
2022-11-12T05:10:31.848Z,5.25
2022-11-12T05:12:58.429Z,9.43
2022-11-12T05:15:25.087Z,6.35
2022-11-12T05:17:52.038Z,4.50
2022-11-12T05:20:18.922Z,4.72
2022-11-12T05:22:59.021Z,5.32
2022-11-12T05:25:33.163Z,6.13
2022-11-12T05:27:59.680Z,6.25
2022-11-12T05:30:26.364Z,5.72
2022-11-12T05:32:52.913Z,5.22
2022-11-12T05:35:19.646Z,4.43
2022-11-12T05:37:46.169Z,5.80
2022-11-12T05:40:13.276Z,7.68
2022-11-12T05:42:39.911Z,6.80
2022-11-12T05:45:07.346Z,9.57
2022-11-12T05:47:34.120Z,6.88
2022-11-12T05:50:00.838Z,6.70
2022-11-12T05:52:27.591Z,5.80
2022-11-12T05:54:57.094Z,5.00
2022-11-12T05:57:23.670Z,6.38
2022-11-12T05:59:50.549Z,8.65
2022-11-12T06:02:17.275Z,6.50
2022-11-12T06:04:44.030Z,6.47
2022-11-12T06:07:10.664Z,5.68
2022-11-12T06:09:37.231Z,4.15
2022-11-12T06:12:06.816Z,6.40
2022-11-12T06:14:33.407Z,8.25
2022-11-12T06:17:00.089Z,6.38
2022-11-12T06:19:26.649Z,5.65
2022-11-12T06:21:53.383Z,4.20
2022-11-12T06:24:20.327Z,8.73
2022-11-12T06:26:46.996Z,6.28
2022-11-12T06:29:13.572Z,4.90
2022-11-12T06:31:40.148Z,5.18
2022-11-12T06:34:07.167Z,5.72
2022-11-12T06:36:33.894Z,5.13
2022-11-12T06:39:00.760Z,5.07
2022-11-12T06:41:27.381Z,5.47
2022-11-12T06:43:54.045Z,5.35
2022-11-12T06:46:20.657Z,8.48
2022-11-12T06:48:48.366Z,5.45
2022-11-12T06:51:20.542Z,7.93
2022-11-12T06:53:47.777Z,5.75
2022-11-12T06:56:15.461Z,5.22
2022-11-12T06:58:42.649Z,6.47
2022-11-12T07:01:15.949Z,5.75
2022-11-12T07:03:44.167Z,7.95
2022-11-12T07:06:19.344Z,6.00
2022-11-12T07:08:47.016Z,8.35
2022-11-12T07:11:13.889Z,6.30
2022-11-12T07:13:40.634Z,8.63
2022-11-12T07:16:09.429Z,6.10
2022-11-12T07:18:36.177Z,5.43
2022-11-12T07:21:06.611Z,4.85
2022-11-12T07:23:35.006Z,6.82
2022-11-12T07:26:03.119Z,9.25
2022-11-12T07:28:30.305Z,8.07
2022-11-12T07:31:02.211Z,8.23
2022-11-12T07:33:29.384Z,9.60
2022-11-12T07:36:08.663Z,9.52
2022-11-12T07:38:37.406Z,7.05
2022-11-12T07:41:05.730Z,5.88
2022-11-12T07:43:33.954Z,10.25
2022-11-12T07:46:12.592Z,6.80
2022-11-12T07:48:40.158Z,5.80
2022-11-12T07:51:11.935Z,5.53
2022-11-12T07:53:38.526Z,4.28
2022-11-12T07:56:05.712Z,6.07
2022-11-12T07:58:34.082Z,8.10
2022-11-12T08:01:35.459Z,5.30
2022-11-12T08:04:04.828Z,5.68
2022-11-12T08:06:32.836Z,8.98
2022-11-12T08:09:01.615Z,5.50
2022-11-12T08:11:28.421Z,5.60
2022-11-12T08:13:55.209Z,4.93
2022-11-12T08:16:21.997Z,4.40
2022-11-12T08:18:48.763Z,6.25
2022-11-12T08:21:18.446Z,6.85
2022-11-12T08:23:47.741Z,3.95
2022-11-12T08:26:17.461Z,4.50
2022-11-12T08:28:44.627Z,5.53
2022-11-12T08:31:13.904Z,7.50
2022-11-12T08:33:41.288Z,5.80
2022-11-12T08:36:10.822Z,6.45
2022-11-12T08:38:37.841Z,6.90
2022-11-12T08:41:08.901Z,5.50
2022-11-12T08:43:36.549Z,5.72
2022-11-12T08:46:04.792Z,4.95
2022-11-12T08:48:32.973Z,7.43
2022-11-12T08:51:01.860Z,4.68
2022-11-12T08:53:28.712Z,4.57
2022-11-12T08:55:56.500Z,5.53
2022-11-12T08:58:24.692Z,5.55
2022-11-12T09:00:52.461Z,4.57
2022-11-12T09:03:21.528Z,6.15
2022-11-12T09:05:48.931Z,7.43
2022-11-12T09:08:22.362Z,7.03
2022-11-12T09:10:50.313Z,7.45
2022-11-12T09:13:18.453Z,4.70
2022-11-12T09:15:48.553Z,6.18
2022-11-12T09:18:17.530Z,6.97
2022-11-12T09:20:44.579Z,6.20
2022-11-12T09:23:15.919Z,9.98
2022-11-12T09:25:43.331Z,9.32
2022-11-12T09:28:15.691Z,11.82
2022-11-12T09:31:02.027Z,7.53
2022-11-12T09:33:31.722Z,7.40
2022-11-12T09:36:01.395Z,7.45
2022-11-12T09:38:28.471Z,7.10
2022-11-12T09:41:08.205Z,7.70
2022-11-12T09:43:45.822Z,7.97
2022-11-12T09:46:37.656Z,14.98
2022-11-12T09:49:14.814Z,6.47
2022-11-12T09:52:07.278Z,6.97
2022-11-12T09:54:35.943Z,8.40
2022-11-12T09:57:02.806Z,6.05
2022-11-12T09:59:35.163Z,7.05
2022-11-12T10:02:35.702Z,7.15
2022-11-12T10:05:23.768Z,8.43
2022-11-12T10:08:17.745Z,7.53
2022-11-12T10:10:50.773Z,9.38
2022-11-12T10:13:51.513Z,4.88
2022-11-12T10:16:43.750Z,13.80
2022-11-12T10:19:22.155Z,4.95
2022-11-12T10:22:08.265Z,6.68
2022-11-12T10:24:37.677Z,6.60
2022-11-12T10:27:27.440Z,5.45
2022-11-12T10:30:01.919Z,5.95
2022-11-12T10:32:29.726Z,7.78
2022-11-12T10:34:56.265Z,6.40
2022-11-12T10:37:31.421Z,6.18
2022-11-12T10:39:58.391Z,8.88
2022-11-12T10:42:25.026Z,5.38
2022-11-12T10:44:52.872Z,5.97
2022-11-12T10:47:30.659Z,8.25
2022-11-12T10:50:11.787Z,5.22
2022-11-12T10:52:38.410Z,7.78
2022-11-12T10:55:25.079Z,7.32
2022-11-12T10:58:13.355Z,4.53
2022-11-12T11:00:57.578Z,4.85
2022-11-12T11:03:47.402Z,7.45
2022-11-12T11:06:13.903Z,9.93
2022-11-12T11:08:51.634Z,7.45
2022-11-12T11:11:29.737Z,5.47
2022-11-12T11:14:08.742Z,7.90
2022-11-12T11:16:50.113Z,5.88
2022-11-12T11:19:17.398Z,6.05
2022-11-12T11:21:49.955Z,6.55
2022-11-12T11:24:32.244Z,6.15
2022-11-12T11:27:20.704Z,4.30
2022-11-12T11:30:16.615Z,6.15
2022-11-12T11:33:14.225Z,5.60
2022-11-12T11:36:00.240Z,6.43
2022-11-12T11:38:30.491Z,6.05
2022-11-12T11:41:11.158Z,5.82
2022-11-12T11:43:46.470Z,5.78
2022-11-12T11:46:43.970Z,7.05
2022-11-12T11:49:48.521Z,5.22
2022-11-12T11:52:37.077Z,5.25
2022-11-12T11:55:15.619Z,6.78
2022-11-12T11:57:51.186Z,4.13
2022-11-12T12:00:21.509Z,4.45
2022-11-12T12:03:22.127Z,5.07
2022-11-12T12:06:18.821Z,5.72
2022-11-12T12:09:07.306Z,4.10
2022-11-12T12:11:47.332Z,5.72
2022-11-12T12:14:40.993Z,4.45
2022-11-12T12:17:34.818Z,6.28
2022-11-12T12:20:22.932Z,4.72
2022-11-12T12:22:59.358Z,6.18
2022-11-12T12:25:34.984Z,7.38
2022-11-12T12:28:16.815Z,3.97
2022-11-12T12:30:51.136Z,3.85
2022-11-12T12:33:28.439Z,5.35
2022-11-12T12:36:12.948Z,6.82
2022-11-12T12:38:53.992Z,11.48
2022-11-12T12:41:20.525Z,5.15
2022-11-12T12:43:53.268Z,3.88
2022-11-12T12:46:28.313Z,4.85
2022-11-12T12:48:56.909Z,5.10
2022-11-12T12:51:24.615Z,5.82
2022-11-12T12:53:51.231Z,3.97
2022-11-12T12:56:23.786Z,3.50
2022-11-12T12:58:50.832Z,4.47
2022-11-12T13:01:20.800Z,4.70
2022-11-12T13:04:05.086Z,4.88
2022-11-12T13:06:35.466Z,3.20
2022-11-12T13:09:14.898Z,4.93
2022-11-12T13:12:00.544Z,4.15
2022-11-12T13:14:36.299Z,6.68
2022-11-12T13:17:12.063Z,5.03
2022-11-12T13:19:45.779Z,4.77
2022-11-12T13:22:18.187Z,7.03
2022-11-12T13:25:20.284Z,4.57
2022-11-12T13:27:47.101Z,4.68
2022-11-12T13:30:13.603Z,5.00
2022-11-12T13:32:46.254Z,2.95
2022-11-12T13:35:22.962Z,5.93
2022-11-12T13:40:51.583Z,4.25
2022-11-12T13:43:27.674Z,6.03
2022-11-12T13:45:57.184Z,3.53
2022-11-12T13:48:41.470Z,3.20
2022-11-12T13:51:37.427Z,3.83
2022-11-12T13:54:37.379Z,4.47
2022-11-12T13:57:26.998Z,4.85
2022-11-12T14:00:18.315Z,3.88
2022-11-12T14:02:58.121Z,3.65
2022-11-12T14:05:36.097Z,4.80
2022-11-12T14:08:22.976Z,4.70
2022-11-12T14:11:11.154Z,3.85
2022-11-12T14:14:04.315Z,3.95
2022-11-12T14:16:55.518Z,6.53
2022-11-12T14:19:49.479Z,3.90
2022-11-12T14:22:18.845Z,3.58
2022-11-12T14:24:48.884Z,5.30
2022-11-12T14:27:33.776Z,3.45
2022-11-12T14:30:18.815Z,3.80
2022-11-12T14:32:47.873Z,5.18
2022-11-12T14:35:25.303Z,3.38
2022-11-12T14:38:02.506Z,3.55
2022-11-12T14:40:32.008Z,3.28
2022-11-12T14:42:58.828Z,3.55
2022-11-12T14:45:25.469Z,3.60
2022-11-12T14:47:54.254Z,3.17
2022-11-12T14:50:37.430Z,3.67
2022-11-12T14:53:24.814Z,3.35
2022-11-12T14:55:53.693Z,4.57
2022-11-12T14:58:22.227Z,3.17
2022-11-12T15:00:51.679Z,3.40
2022-11-12T15:03:21.302Z,3.42
2022-11-12T15:06:10.359Z,4.43
2022-11-12T15:08:39.817Z,4.43
2022-11-12T15:11:24.015Z,4.13
2022-11-12T15:13:52.889Z,3.90
2022-11-12T15:16:29.307Z,3.47
2022-11-12T15:19:04.151Z,5.53
2022-11-12T15:21:31.956Z,6.60
2022-11-12T15:24:10.813Z,4.45
2022-11-12T15:26:38.750Z,3.45
2022-11-12T15:29:11.074Z,5.68
2022-11-12T15:31:49.152Z,5.75
2022-11-12T15:34:41.869Z,4.47
2022-11-12T15:37:21.786Z,4.82
2022-11-12T15:39:51.132Z,3.67
2022-11-12T15:42:24.498Z,5.13
2022-11-12T15:44:57.415Z,7.03
2022-11-12T15:47:23.978Z,9.18
2022-11-12T15:49:52.958Z,5.50
2022-11-12T15:52:20.093Z,4.93
2022-11-12T15:54:46.970Z,7.45
2022-11-12T15:57:20.173Z,5.32
2022-11-12T15:59:54.970Z,4.65
2022-11-12T16:02:21.708Z,6.40
2022-11-12T16:04:48.370Z,4.90
2022-11-12T16:07:14.986Z,5.82
2022-11-12T16:09:41.726Z,5.40
2022-11-12T16:12:13.513Z,9.55
2022-11-12T16:14:40.632Z,8.85
2022-11-12T16:17:13.215Z,6.40
2022-11-12T16:19:39.948Z,7.43
2022-11-12T16:22:12.535Z,6.78
2022-11-12T16:24:40.693Z,6.72
2022-11-12T16:27:13.308Z,7.13
2022-11-12T16:29:40.262Z,8.23
2022-11-12T16:32:07.228Z,5.65
2022-11-12T16:34:33.813Z,7.32
2022-11-12T16:37:00.536Z,5.95
2022-11-12T16:39:27.206Z,7.20
2022-11-12T16:41:53.921Z,7.38
2022-11-12T16:44:20.487Z,10.43
2022-11-12T16:46:47.109Z,8.20
2022-11-12T16:49:15.583Z,8.77
2022-11-12T16:51:42.169Z,8.90
2022-11-12T16:54:08.952Z,7.70
2022-11-12T16:56:36.621Z,9.50
2022-11-12T16:59:04.394Z,6.22
2022-11-12T17:01:32.477Z,7.13
2022-11-12T17:03:59.385Z,9.68
2022-11-12T17:06:38.210Z,7.95
2022-11-12T17:09:06.328Z,6.55
2022-11-12T17:11:34.491Z,9.98
2022-11-12T17:14:02.127Z,11.68
2022-11-12T17:16:29.482Z,9.60
2022-11-12T17:18:57.974Z,10.60
2022-11-12T17:21:25.441Z,8.65
2022-11-12T17:23:52.097Z,8.00
2022-11-12T17:26:20.385Z,7.15
2022-11-12T17:28:48.373Z,6.90
2022-11-12T17:31:23.067Z,8.60
2022-11-12T17:33:52.005Z,8.93
2022-11-12T17:36:23.962Z,7.90
2022-11-12T17:38:59.368Z,9.82
2022-11-12T17:41:28.768Z,9.75
2022-11-12T17:43:57.444Z,6.97
2022-11-12T17:46:24.501Z,8.93
2022-11-12T17:48:51.417Z,9.13
2022-11-12T17:51:20.912Z,12.38
2022-11-12T17:53:47.928Z,13.45
2022-11-12T17:56:19.080Z,11.05
2022-11-12T17:58:47.245Z,10.48
2022-11-12T18:01:25.088Z,11.23
2022-11-12T18:03:54.275Z,10.32
2022-11-12T18:06:23.866Z,8.50
2022-11-12T18:08:56.062Z,8.73
2022-11-12T18:11:23.948Z,8.10
2022-11-12T18:13:50.962Z,12.80
2022-11-12T18:16:22.218Z,14.73
2022-11-12T18:18:49.479Z,10.55
2022-11-12T18:21:17.613Z,14.55
2022-11-12T18:23:45.126Z,10.73
2022-11-12T18:26:18.237Z,12.57
2022-11-12T18:28:45.557Z,12.55
2022-11-12T18:31:13.008Z,10.52
2022-11-12T18:33:39.568Z,10.07
2022-11-12T18:36:10.311Z,11.13
2022-11-12T18:38:37.628Z,9.80
2022-11-12T18:41:09.942Z,11.68
2022-11-12T18:43:37.222Z,11.00
2022-11-12T18:46:05.095Z,10.95
2022-11-12T18:48:33.222Z,11.23
2022-11-12T18:51:07.254Z,10.15
2022-11-12T18:53:35.301Z,10.20
2022-11-12T18:56:09.419Z,10.15
2022-11-12T18:58:36.478Z,10.43
2022-11-12T19:01:05.452Z,8.32
2022-11-12T19:03:32.306Z,9.98
2022-11-12T19:06:00.624Z,9.93
2022-11-12T19:08:27.573Z,12.88
2022-11-12T19:11:01.605Z,12.20
2022-11-12T19:13:28.565Z,18.50
2022-11-12T19:15:55.836Z,16.20
2022-11-12T19:18:22.457Z,14.00
2022-11-12T19:20:49.276Z,15.15
2022-11-12T19:23:16.091Z,14.90
2022-11-12T19:25:42.628Z,15.20
2022-11-12T19:28:09.236Z,16.95
2022-11-12T19:30:35.909Z,14.32
2022-11-12T19:33:02.495Z,12.93
2022-11-12T19:35:29.050Z,17.77
2022-11-12T19:37:55.791Z,13.82
2022-11-12T19:40:22.432Z,20.55
2022-11-12T19:42:48.996Z,20.83
2022-11-12T19:45:15.823Z,36.25
2022-11-12T19:47:42.373Z,19.77
2022-11-12T19:50:09.487Z,19.00
2022-11-12T19:52:36.081Z,15.43
2022-11-12T19:55:02.819Z,17.92
2022-11-12T19:57:29.530Z,20.92
2022-11-12T19:59:56.126Z,15.10
2022-11-12T20:02:22.667Z,18.45
2022-11-12T20:04:49.260Z,15.95
2022-11-12T20:07:15.898Z,14.95
2022-11-12T20:09:42.743Z,17.42
2022-11-12T20:12:09.326Z,13.73
2022-11-12T20:14:36.129Z,13.43
2022-11-12T20:17:02.955Z,15.48
2022-11-12T20:19:29.591Z,12.15
2022-11-12T20:21:57.279Z,13.98
2022-11-12T20:24:23.872Z,16.67
2022-11-12T20:26:50.455Z,18.00
2022-11-12T20:29:17.406Z,16.50
2022-11-12T20:31:44.118Z,13.88
2022-11-12T20:34:12.777Z,13.38
2022-11-12T20:36:39.415Z,14.02
2022-11-12T20:39:06.243Z,11.80
2022-11-12T20:41:33.955Z,15.07
2022-11-12T20:44:01.033Z,14.10
2022-11-12T20:46:28.400Z,13.75
2022-11-12T20:48:55.073Z,12.90
2022-11-12T20:51:26.512Z,15.75
2022-11-12T20:53:58.720Z,16.38
2022-11-12T20:56:27.099Z,15.27
2022-11-12T20:58:54.082Z,34.30
2022-11-12T21:01:22.297Z,36.85
2022-11-12T21:03:49.017Z,23.63
2022-11-12T21:06:18.527Z,34.85
2022-11-12T21:08:46.602Z,60.35
2022-11-12T21:11:15.729Z,60.97
2022-11-12T21:13:42.748Z,50.88
2022-11-12T21:16:10.586Z,43.47
2022-11-12T21:18:38.114Z,35.83
2022-11-12T21:21:07.573Z,29.75
2022-11-12T21:23:36.501Z,35.28
2022-11-12T21:26:09.491Z,26.88
2022-11-12T21:28:38.369Z,29.23
2022-11-12T21:31:08.651Z,26.02
2022-11-12T21:33:36.533Z,24.70
2022-11-12T21:36:05.053Z,19.48
2022-11-12T21:38:32.011Z,19.80
2022-11-12T21:41:06.086Z,21.75
2022-11-12T21:43:37.288Z,18.85
2022-11-12T21:46:07.865Z,18.42
2022-11-12T21:48:35.119Z,18.80
2022-11-12T21:51:12.934Z,19.92
2022-11-12T21:53:41.189Z,19.67
2022-11-12T21:56:16.637Z,22.23
2022-11-12T21:58:43.907Z,19.75
2022-11-12T22:01:13.698Z,18.10
2022-11-12T22:03:40.558Z,19.85
2022-11-12T22:06:07.891Z,19.13
2022-11-12T22:08:34.643Z,21.70
2022-11-12T22:11:10.001Z,19.98
2022-11-12T22:13:37.573Z,18.27
2022-11-12T22:16:09.910Z,19.83
2022-11-12T22:18:37.034Z,16.45
2022-11-12T22:21:06.932Z,17.88
2022-11-12T22:23:36.014Z,16.20
2022-11-12T22:26:05.520Z,18.35
2022-11-12T22:28:34.418Z,21.30
2022-11-12T22:31:06.271Z,17.30
2022-11-12T22:33:33.058Z,13.18
2022-11-12T22:36:04.093Z,12.05
2022-11-12T22:38:38.040Z,16.13
2022-11-12T22:41:07.116Z,11.90
2022-11-12T22:43:36.725Z,11.63
2022-11-12T22:46:20.890Z,11.63
2022-11-12T22:48:48.040Z,12.45
2022-11-12T22:51:23.629Z,10.82
2022-11-12T22:53:55.465Z,11.40
2022-11-12T22:56:23.087Z,12.90
2022-11-12T22:58:50.330Z,17.75
2022-11-12T23:01:29.090Z,13.77
2022-11-12T23:03:58.020Z,17.05
2022-11-12T23:06:26.348Z,15.13
2022-11-12T23:08:53.848Z,14.90
2022-11-12T23:11:21.672Z,16.23
2022-11-12T23:13:48.496Z,15.63
2022-11-12T23:16:19.519Z,12.10
2022-11-12T23:18:46.195Z,12.07
2022-11-12T23:21:15.845Z,11.55
2022-11-12T23:23:44.486Z,13.45
2022-11-12T23:26:14.118Z,10.73
2022-11-12T23:28:41.130Z,11.15
2022-11-12T23:31:16.148Z,12.07
2022-11-12T23:33:49.950Z,11.90
2022-11-12T23:36:16.919Z,9.52
2022-11-12T23:38:44.072Z,9.95
2022-11-12T23:41:17.022Z,10.02
2022-11-12T23:43:44.051Z,12.02
2022-11-12T23:46:12.424Z,10.00
2022-11-12T23:48:39.086Z,12.90
2022-11-12T23:51:11.026Z,10.93
2022-11-12T23:53:38.652Z,8.70
2022-11-12T23:56:09.326Z,12.98
2022-11-12T23:58:37.294Z,11.40
